sensor_id;sensor_type;location;lat;lon;timestamp;P1;durP1;ratioP1;P2;durP2;ratioP2
20653;SDS011;21083;50.898;4.902;2022-08-05T00:00:02;13.48;;;4.80;;
20653;SDS011;21083;50.898;4.902;2022-08-05T00:02:30;11.45;;;4.47;;
20653;SDS011;21083;50.898;4.902;2022-08-05T00:04:56;12.02;;;4.88;;
20653;SDS011;21083;50.898;4.902;2022-08-05T00:07:23;12.70;;;4.70;;
20653;SDS011;21083;50.898;4.902;2022-08-05T00:09:52;14.57;;;4.45;;
20653;SDS011;21083;50.898;4.902;2022-08-05T00:12:18;16.05;;;5.20;;
20653;SDS011;21083;50.898;4.902;2022-08-05T00:14:45;17.75;;;5.00;;
20653;SDS011;21083;50.898;4.902;2022-08-05T00:17:12;15.68;;;5.00;;
20653;SDS011;21083;50.898;4.902;2022-08-05T00:19:39;9.50;;;4.13;;
20653;SDS011;21083;50.898;4.902;2022-08-05T00:22:06;11.60;;;5.07;;
20653;SDS011;21083;50.898;4.902;2022-08-05T00:24:33;12.88;;;4.72;;
20653;SDS011;21083;50.898;4.902;2022-08-05T00:27:02;11.85;;;4.65;;
20653;SDS011;21083;50.898;4.902;2022-08-05T00:29:29;18.50;;;4.88;;
20653;SDS011;21083;50.898;4.902;2022-08-05T00:31:56;15.48;;;4.93;;
20653;SDS011;21083;50.898;4.902;2022-08-05T00:34:23;13.57;;;4.78;;
20653;SDS011;21083;50.898;4.902;2022-08-05T00:36:49;14.60;;;5.13;;
20653;SDS011;21083;50.898;4.902;2022-08-05T00:39:16;13.90;;;4.80;;
20653;SDS011;21083;50.898;4.902;2022-08-05T00:41:44;13.52;;;5.20;;
20653;SDS011;21083;50.898;4.902;2022-08-05T00:44:13;10.30;;;4.28;;
20653;SDS011;21083;50.898;4.902;2022-08-05T00:46:40;10.57;;;5.00;;
20653;SDS011;21083;50.898;4.902;2022-08-05T00:49:07;14.05;;;5.13;;
20653;SDS011;21083;50.898;4.902;2022-08-05T00:51:34;14.15;;;4.80;;
20653;SDS011;21083;50.898;4.902;2022-08-05T00:54:01;11.25;;;4.40;;
20653;SDS011;21083;50.898;4.902;2022-08-05T00:56:28;14.27;;;4.57;;
20653;SDS011;21083;50.898;4.902;2022-08-05T00:58:55;11.13;;;4.28;;
20653;SDS011;21083;50.898;4.902;2022-08-05T01:01:23;11.60;;;4.47;;
20653;SDS011;21083;50.898;4.902;2022-08-05T01:03:50;12.80;;;4.65;;
20653;SDS011;21083;50.898;4.902;2022-08-05T01:06:17;16.75;;;4.97;;
20653;SDS011;21083;50.898;4.902;2022-08-05T01:08:43;20.65;;;4.97;;
20653;SDS011;21083;50.898;4.902;2022-08-05T01:11:11;18.02;;;4.45;;
20653;SDS011;21083;50.898;4.902;2022-08-05T01:13:44;12.80;;;4.82;;
20653;SDS011;21083;50.898;4.902;2022-08-05T01:16:17;17.63;;;5.00;;
20653;SDS011;21083;50.898;4.902;2022-08-05T01:18:50;12.65;;;5.10;;
20653;SDS011;21083;50.898;4.902;2022-08-05T01:21:25;10.48;;;4.93;;
20653;SDS011;21083;50.898;4.902;2022-08-05T01:24:13;11.80;;;5.25;;
20653;SDS011;21083;50.898;4.902;2022-08-05T01:26:56;16.17;;;5.35;;
20653;SDS011;21083;50.898;4.902;2022-08-05T01:29:31;16.13;;;5.40;;
20653;SDS011;21083;50.898;4.902;2022-08-05T01:32:05;12.10;;;5.45;;
20653;SDS011;21083;50.898;4.902;2022-08-05T01:34:36;15.15;;;4.97;;
20653;SDS011;21083;50.898;4.902;2022-08-05T01:37:07;14.30;;;5.25;;
20653;SDS011;21083;50.898;4.902;2022-08-05T01:39:37;14.98;;;4.97;;
20653;SDS011;21083;50.898;4.902;2022-08-05T01:42:05;17.67;;;5.28;;
20653;SDS011;21083;50.898;4.902;2022-08-05T01:44:37;27.20;;;6.45;;
20653;SDS011;21083;50.898;4.902;2022-08-05T01:47:05;16.38;;;5.80;;
20653;SDS011;21083;50.898;4.902;2022-08-05T01:49:34;15.23;;;5.88;;
20653;SDS011;21083;50.898;4.902;2022-08-05T01:52:05;19.10;;;6.22;;
20653;SDS011;21083;50.898;4.902;2022-08-05T01:54:35;16.40;;;6.53;;
20653;SDS011;21083;50.898;4.902;2022-08-05T01:57:08;19.85;;;6.65;;
20653;SDS011;21083;50.898;4.902;2022-08-05T01:59:38;14.68;;;6.03;;
20653;SDS011;21083;50.898;4.902;2022-08-05T02:02:07;16.38;;;6.47;;
20653;SDS011;21083;50.898;4.902;2022-08-05T02:04:37;15.55;;;7.03;;
20653;SDS011;21083;50.898;4.902;2022-08-05T02:07:07;17.15;;;6.55;;
20653;SDS011;21083;50.898;4.902;2022-08-05T02:09:35;15.23;;;7.43;;
20653;SDS011;21083;50.898;4.902;2022-08-05T02:12:04;12.48;;;6.40;;
20653;SDS011;21083;50.898;4.902;2022-08-05T02:14:38;20.48;;;6.93;;
20653;SDS011;21083;50.898;4.902;2022-08-05T02:17:10;19.27;;;6.47;;
20653;SDS011;21083;50.898;4.902;2022-08-05T02:19:42;15.60;;;7.00;;
20653;SDS011;21083;50.898;4.902;2022-08-05T02:22:14;13.63;;;6.70;;
20653;SDS011;21083;50.898;4.902;2022-08-05T02:24:45;14.80;;;7.50;;
20653;SDS011;21083;50.898;4.902;2022-08-05T02:27:17;19.02;;;6.75;;
20653;SDS011;21083;50.898;4.902;2022-08-05T02:29:48;19.52;;;7.00;;
20653;SDS011;21083;50.898;4.902;2022-08-05T02:32:17;14.18;;;6.22;;
20653;SDS011;21083;50.898;4.902;2022-08-05T02:34:47;13.55;;;7.13;;
20653;SDS011;21083;50.898;4.902;2022-08-05T02:37:15;15.32;;;7.03;;
20653;SDS011;21083;50.898;4.902;2022-08-05T02:39:43;14.00;;;6.78;;
20653;SDS011;21083;50.898;4.902;2022-08-05T02:42:12;22.10;;;6.40;;
20653;SDS011;21083;50.898;4.902;2022-08-05T02:44:40;22.40;;;7.60;;
20653;SDS011;21083;50.898;4.902;2022-08-05T02:47:09;21.55;;;7.97;;
20653;SDS011;21083;50.898;4.902;2022-08-05T02:49:38;17.08;;;7.13;;
20653;SDS011;21083;50.898;4.902;2022-08-05T02:52:08;14.95;;;7.05;;
20653;SDS011;21083;50.898;4.902;2022-08-05T02:54:37;15.85;;;7.25;;
20653;SDS011;21083;50.898;4.902;2022-08-05T02:57:07;21.30;;;7.50;;
20653;SDS011;21083;50.898;4.902;2022-08-05T02:59:36;19.83;;;7.80;;
20653;SDS011;21083;50.898;4.902;2022-08-05T03:02:05;22.30;;;8.20;;
20653;SDS011;21083;50.898;4.902;2022-08-05T03:04:35;11.77;;;6.68;;
20653;SDS011;21083;50.898;4.902;2022-08-05T03:07:03;14.95;;;7.03;;
20653;SDS011;21083;50.898;4.902;2022-08-05T03:09:31;17.40;;;7.03;;
20653;SDS011;21083;50.898;4.902;2022-08-05T03:11:58;15.90;;;7.50;;
20653;SDS011;21083;50.898;4.902;2022-08-05T03:14:25;18.20;;;7.60;;
20653;SDS011;21083;50.898;4.902;2022-08-05T03:16:52;17.65;;;6.97;;
20653;SDS011;21083;50.898;4.902;2022-08-05T03:19:19;14.38;;;6.57;;
20653;SDS011;21083;50.898;4.902;2022-08-05T03:21:47;16.75;;;7.05;;
20653;SDS011;21083;50.898;4.902;2022-08-05T03:24:14;17.42;;;7.30;;
20653;SDS011;21083;50.898;4.902;2022-08-05T03:26:42;25.13;;;8.27;;
20653;SDS011;21083;50.898;4.902;2022-08-05T03:29:09;17.10;;;7.88;;
20653;SDS011;21083;50.898;4.902;2022-08-05T03:31:36;16.50;;;7.88;;
20653;SDS011;21083;50.898;4.902;2022-08-05T03:34:04;19.25;;;8.60;;
20653;SDS011;21083;50.898;4.902;2022-08-05T03:36:31;12.98;;;7.85;;
20653;SDS011;21083;50.898;4.902;2022-08-05T03:39:04;16.63;;;8.13;;
20653;SDS011;21083;50.898;4.902;2022-08-05T03:41:31;16.92;;;8.55;;
20653;SDS011;21083;50.898;4.902;2022-08-05T03:43:59;18.23;;;8.88;;
20653;SDS011;21083;50.898;4.902;2022-08-05T03:46:26;16.17;;;7.80;;
20653;SDS011;21083;50.898;4.902;2022-08-05T03:48:53;18.25;;;8.50;;
20653;SDS011;21083;50.898;4.902;2022-08-05T03:51:21;24.40;;;7.78;;
20653;SDS011;21083;50.898;4.902;2022-08-05T03:53:54;16.33;;;8.55;;
20653;SDS011;21083;50.898;4.902;2022-08-05T03:56:27;15.60;;;8.98;;
20653;SDS011;21083;50.898;4.902;2022-08-05T03:58:59;16.38;;;7.97;;
20653;SDS011;21083;50.898;4.902;2022-08-05T04:01:28;16.90;;;8.73;;
20653;SDS011;21083;50.898;4.902;2022-08-05T04:03:57;15.52;;;8.88;;
20653;SDS011;21083;50.898;4.902;2022-08-05T04:06:24;22.83;;;8.55;;
20653;SDS011;21083;50.898;4.902;2022-08-05T04:08:51;20.35;;;9.63;;
20653;SDS011;21083;50.898;4.902;2022-08-05T04:11:19;18.45;;;8.63;;
20653;SDS011;21083;50.898;4.902;2022-08-05T04:13:48;23.40;;;9.75;;
20653;SDS011;21083;50.898;4.902;2022-08-05T04:16:15;26.63;;;9.82;;
20653;SDS011;21083;50.898;4.902;2022-08-05T04:18:43;16.42;;;7.85;;
20653;SDS011;21083;50.898;4.902;2022-08-05T04:21:11;17.63;;;9.38;;
20653;SDS011;21083;50.898;4.902;2022-08-05T04:23:37;20.60;;;9.35;;
20653;SDS011;21083;50.898;4.902;2022-08-05T04:26:05;19.48;;;9.40;;
20653;SDS011;21083;50.898;4.902;2022-08-05T04:28:31;19.73;;;9.13;;
20653;SDS011;21083;50.898;4.902;2022-08-05T04:31:00;25.00;;;10.25;;
20653;SDS011;21083;50.898;4.902;2022-08-05T04:33:27;19.13;;;10.00;;
20653;SDS011;21083;50.898;4.902;2022-08-05T04:35:54;19.75;;;9.18;;
20653;SDS011;21083;50.898;4.902;2022-08-05T04:38:21;23.45;;;10.10;;
20653;SDS011;21083;50.898;4.902;2022-08-05T04:40:48;16.17;;;9.30;;
20653;SDS011;21083;50.898;4.902;2022-08-05T04:43:15;21.92;;;9.77;;
20653;SDS011;21083;50.898;4.902;2022-08-05T04:45:41;20.88;;;9.60;;
20653;SDS011;21083;50.898;4.902;2022-08-05T04:48:10;16.83;;;8.95;;
20653;SDS011;21083;50.898;4.902;2022-08-05T04:50:39;25.70;;;9.60;;
20653;SDS011;21083;50.898;4.902;2022-08-05T04:53:07;21.58;;;9.93;;
20653;SDS011;21083;50.898;4.902;2022-08-05T04:55:35;21.05;;;10.05;;
20653;SDS011;21083;50.898;4.902;2022-08-05T04:58:02;22.35;;;10.98;;
20653;SDS011;21083;50.898;4.902;2022-08-05T05:00:29;19.27;;;9.18;;
20653;SDS011;21083;50.898;4.902;2022-08-05T05:02:56;18.88;;;10.23;;
20653;SDS011;21083;50.898;4.902;2022-08-05T05:05:25;16.83;;;9.18;;
20653;SDS011;21083;50.898;4.902;2022-08-05T05:07:53;21.95;;;10.45;;
20653;SDS011;21083;50.898;4.902;2022-08-05T05:10:20;20.67;;;9.60;;
20653;SDS011;21083;50.898;4.902;2022-08-05T05:12:47;20.58;;;10.18;;
20653;SDS011;21083;50.898;4.902;2022-08-05T05:15:14;21.23;;;9.43;;
20653;SDS011;21083;50.898;4.902;2022-08-05T05:17:41;18.23;;;9.75;;
20653;SDS011;21083;50.898;4.902;2022-08-05T05:20:09;21.88;;;9.13;;
20653;SDS011;21083;50.898;4.902;2022-08-05T05:22:38;19.90;;;9.13;;
20653;SDS011;21083;50.898;4.902;2022-08-05T05:25:06;20.05;;;9.45;;
20653;SDS011;21083;50.898;4.902;2022-08-05T05:27:34;17.73;;;9.30;;
20653;SDS011;21083;50.898;4.902;2022-08-05T05:30:01;21.13;;;9.10;;
20653;SDS011;21083;50.898;4.902;2022-08-05T05:32:28;19.52;;;9.93;;
20653;SDS011;21083;50.898;4.902;2022-08-05T05:34:55;18.02;;;9.20;;
20653;SDS011;21083;50.898;4.902;2022-08-05T05:37:22;19.85;;;10.13;;
20653;SDS011;21083;50.898;4.902;2022-08-05T05:39:50;18.80;;;9.55;;
20653;SDS011;21083;50.898;4.902;2022-08-05T05:42:17;17.20;;;10.32;;
20653;SDS011;21083;50.898;4.902;2022-08-05T05:44:44;17.35;;;9.23;;
20653;SDS011;21083;50.898;4.902;2022-08-05T05:47:11;18.00;;;9.55;;
20653;SDS011;21083;50.898;4.902;2022-08-05T05:49:38;24.98;;;10.55;;
20653;SDS011;21083;50.898;4.902;2022-08-05T05:52:05;20.35;;;10.32;;
20653;SDS011;21083;50.898;4.902;2022-08-05T05:54:32;25.13;;;10.07;;
20653;SDS011;21083;50.898;4.902;2022-08-05T05:57:00;28.40;;;10.48;;
20653;SDS011;21083;50.898;4.902;2022-08-05T05:59:27;19.67;;;10.20;;
20653;SDS011;21083;50.898;4.902;2022-08-05T06:01:54;24.02;;;10.32;;
20653;SDS011;21083;50.898;4.902;2022-08-05T06:04:21;18.38;;;9.43;;
20653;SDS011;21083;50.898;4.902;2022-08-05T06:06:48;17.88;;;9.82;;
20653;SDS011;21083;50.898;4.902;2022-08-05T06:09:14;20.38;;;10.60;;
20653;SDS011;21083;50.898;4.902;2022-08-05T06:11:42;19.67;;;9.93;;
20653;SDS011;21083;50.898;4.902;2022-08-05T06:14:11;28.80;;;10.07;;
20653;SDS011;21083;50.898;4.902;2022-08-05T06:16:37;23.40;;;10.05;;
20653;SDS011;21083;50.898;4.902;2022-08-05T06:19:04;22.65;;;9.57;;
20653;SDS011;21083;50.898;4.902;2022-08-05T06:21:31;19.33;;;9.02;;
20653;SDS011;21083;50.898;4.902;2022-08-05T06:23:58;35.20;;;9.68;;
20653;SDS011;21083;50.898;4.902;2022-08-05T06:26:25;17.85;;;9.25;;
20653;SDS011;21083;50.898;4.902;2022-08-05T06:28:52;22.25;;;9.63;;
20653;SDS011;21083;50.898;4.902;2022-08-05T06:31:20;16.70;;;7.95;;
20653;SDS011;21083;50.898;4.902;2022-08-05T06:33:47;17.85;;;9.13;;
20653;SDS011;21083;50.898;4.902;2022-08-05T06:36:14;17.55;;;8.98;;
20653;SDS011;21083;50.898;4.902;2022-08-05T06:38:41;15.40;;;8.02;;
20653;SDS011;21083;50.898;4.902;2022-08-05T06:41:08;18.83;;;9.45;;
20653;SDS011;21083;50.898;4.902;2022-08-05T06:43:35;17.98;;;9.23;;
20653;SDS011;21083;50.898;4.902;2022-08-05T06:46:02;20.83;;;8.90;;
20653;SDS011;21083;50.898;4.902;2022-08-05T06:48:30;20.55;;;8.60;;
20653;SDS011;21083;50.898;4.902;2022-08-05T06:50:58;17.75;;;8.38;;
20653;SDS011;21083;50.898;4.902;2022-08-05T06:53:26;19.58;;;9.05;;
20653;SDS011;21083;50.898;4.902;2022-08-05T06:55:53;21.40;;;9.93;;
20653;SDS011;21083;50.898;4.902;2022-08-05T06:58:19;23.55;;;8.80;;
20653;SDS011;21083;50.898;4.902;2022-08-05T07:00:46;19.42;;;9.30;;
20653;SDS011;21083;50.898;4.902;2022-08-05T07:03:13;18.02;;;8.20;;
20653;SDS011;21083;50.898;4.902;2022-08-05T07:05:41;23.95;;;9.13;;
20653;SDS011;21083;50.898;4.902;2022-08-05T07:08:08;23.42;;;9.25;;
20653;SDS011;21083;50.898;4.902;2022-08-05T07:10:35;23.73;;;9.07;;
20653;SDS011;21083;50.898;4.902;2022-08-05T07:13:02;22.55;;;9.32;;
20653;SDS011;21083;50.898;4.902;2022-08-05T07:15:46;16.00;;;8.63;;
20653;SDS011;21083;50.898;4.902;2022-08-05T07:18:31;16.83;;;8.68;;
20653;SDS011;21083;50.898;4.902;2022-08-05T07:20:59;18.00;;;9.25;;
20653;SDS011;21083;50.898;4.902;2022-08-05T07:23:27;12.75;;;7.85;;
20653;SDS011;21083;50.898;4.902;2022-08-05T07:25:55;16.77;;;8.40;;
20653;SDS011;21083;50.898;4.902;2022-08-05T07:28:23;15.57;;;8.68;;
20653;SDS011;21083;50.898;4.902;2022-08-05T07:30:51;23.60;;;9.77;;
20653;SDS011;21083;50.898;4.902;2022-08-05T07:33:18;17.90;;;9.00;;
20653;SDS011;21083;50.898;4.902;2022-08-05T07:35:46;21.90;;;8.85;;
20653;SDS011;21083;50.898;4.902;2022-08-05T07:38:16;23.13;;;8.63;;
20653;SDS011;21083;50.898;4.902;2022-08-05T07:40:44;19.38;;;8.18;;
20653;SDS011;21083;50.898;4.902;2022-08-05T07:43:11;23.08;;;8.52;;
20653;SDS011;21083;50.898;4.902;2022-08-05T07:45:39;21.13;;;8.93;;
20653;SDS011;21083;50.898;4.902;2022-08-05T07:48:07;14.93;;;7.75;;
20653;SDS011;21083;50.898;4.902;2022-08-05T07:50:34;16.40;;;7.93;;
20653;SDS011;21083;50.898;4.902;2022-08-05T07:53:00;17.58;;;8.63;;
20653;SDS011;21083;50.898;4.902;2022-08-05T07:55:29;18.63;;;8.30;;
20653;SDS011;21083;50.898;4.902;2022-08-05T07:57:56;16.33;;;8.68;;
20653;SDS011;21083;50.898;4.902;2022-08-05T08:00:23;15.60;;;8.05;;
20653;SDS011;21083;50.898;4.902;2022-08-05T08:02:50;12.70;;;7.20;;
20653;SDS011;21083;50.898;4.902;2022-08-05T08:05:17;16.05;;;7.75;;
20653;SDS011;21083;50.898;4.902;2022-08-05T08:07:44;16.05;;;7.63;;
20653;SDS011;21083;50.898;4.902;2022-08-05T08:10:12;26.55;;;8.23;;
20653;SDS011;21083;50.898;4.902;2022-08-05T08:12:40;20.80;;;8.52;;
20653;SDS011;21083;50.898;4.902;2022-08-05T08:15:07;20.20;;;8.68;;
20653;SDS011;21083;50.898;4.902;2022-08-05T08:17:36;18.42;;;7.75;;
20653;SDS011;21083;50.898;4.902;2022-08-05T08:20:03;17.67;;;7.90;;
20653;SDS011;21083;50.898;4.902;2022-08-05T08:22:31;22.50;;;7.88;;
20653;SDS011;21083;50.898;4.902;2022-08-05T08:24:59;19.45;;;7.65;;
20653;SDS011;21083;50.898;4.902;2022-08-05T08:27:26;13.45;;;7.18;;
20653;SDS011;21083;50.898;4.902;2022-08-05T08:29:55;18.02;;;8.57;;
20653;SDS011;21083;50.898;4.902;2022-08-05T08:32:22;13.35;;;7.47;;
20653;SDS011;21083;50.898;4.902;2022-08-05T08:34:49;13.38;;;6.78;;
20653;SDS011;21083;50.898;4.902;2022-08-05T08:37:16;15.95;;;7.30;;
20653;SDS011;21083;50.898;4.902;2022-08-05T08:39:43;19.52;;;7.20;;
20653;SDS011;21083;50.898;4.902;2022-08-05T08:42:10;18.17;;;7.20;;
20653;SDS011;21083;50.898;4.902;2022-08-05T08:44:39;17.88;;;6.85;;
20653;SDS011;21083;50.898;4.902;2022-08-05T08:47:08;15.52;;;6.80;;
20653;SDS011;21083;50.898;4.902;2022-08-05T08:49:36;14.45;;;6.38;;
20653;SDS011;21083;50.898;4.902;2022-08-05T08:52:07;16.75;;;6.80;;
20653;SDS011;21083;50.898;4.902;2022-08-05T08:54:37;13.98;;;6.00;;
20653;SDS011;21083;50.898;4.902;2022-08-05T08:57:05;15.50;;;6.05;;
20653;SDS011;21083;50.898;4.902;2022-08-05T08:59:33;13.85;;;5.78;;
20653;SDS011;21083;50.898;4.902;2022-08-05T09:02:00;16.40;;;5.88;;
20653;SDS011;21083;50.898;4.902;2022-08-05T09:04:33;15.95;;;5.60;;
20653;SDS011;21083;50.898;4.902;2022-08-05T09:07:02;11.32;;;5.10;;
20653;SDS011;21083;50.898;4.902;2022-08-05T09:09:30;18.48;;;5.70;;
20653;SDS011;21083;50.898;4.902;2022-08-05T09:11:58;16.08;;;5.68;;
20653;SDS011;21083;50.898;4.902;2022-08-05T09:14:25;13.10;;;4.88;;
20653;SDS011;21083;50.898;4.902;2022-08-05T09:16:52;11.05;;;4.28;;
20653;SDS011;21083;50.898;4.902;2022-08-05T09:19:19;15.15;;;4.28;;
20653;SDS011;21083;50.898;4.902;2022-08-05T09:21:47;12.57;;;3.88;;
20653;SDS011;21083;50.898;4.902;2022-08-05T09:24:14;11.88;;;3.85;;
20653;SDS011;21083;50.898;4.902;2022-08-05T09:26:43;13.52;;;4.10;;
20653;SDS011;21083;50.898;4.902;2022-08-05T09:29:12;14.25;;;3.60;;
20653;SDS011;21083;50.898;4.902;2022-08-05T09:31:39;15.38;;;4.07;;
20653;SDS011;21083;50.898;4.902;2022-08-05T09:34:09;8.40;;;3.00;;
20653;SDS011;21083;50.898;4.902;2022-08-05T09:36:38;11.82;;;3.67;;
20653;SDS011;21083;50.898;4.902;2022-08-05T09:39:09;10.77;;;3.50;;
20653;SDS011;21083;50.898;4.902;2022-08-05T09:44:34;11.80;;;3.17;;
20653;SDS011;21083;50.898;4.902;2022-08-05T09:47:10;10.98;;;3.30;;
20653;SDS011;21083;50.898;4.902;2022-08-05T09:49:39;8.63;;;2.45;;
20653;SDS011;21083;50.898;4.902;2022-08-05T09:52:17;9.52;;;2.65;;
20653;SDS011;21083;50.898;4.902;2022-08-05T09:54:53;15.45;;;2.65;;
20653;SDS011;21083;50.898;4.902;2022-08-05T09:57:32;7.75;;;2.72;;
20653;SDS011;21083;50.898;4.902;2022-08-05T10:00:05;6.65;;;2.28;;
20653;SDS011;21083;50.898;4.902;2022-08-05T10:02:36;6.10;;;2.20;;
20653;SDS011;21083;50.898;4.902;2022-08-05T10:05:05;15.13;;;2.78;;
20653;SDS011;21083;50.898;4.902;2022-08-05T10:07:42;10.75;;;2.45;;
20653;SDS011;21083;50.898;4.902;2022-08-05T10:10:18;9.07;;;3.00;;
20653;SDS011;21083;50.898;4.902;2022-08-05T10:12:50;7.65;;;2.60;;
20653;SDS011;21083;50.898;4.902;2022-08-05T10:15:23;9.45;;;3.03;;
20653;SDS011;21083;50.898;4.902;2022-08-05T10:20:40;9.88;;;3.10;;
20653;SDS011;21083;50.898;4.902;2022-08-05T10:23:09;6.03;;;2.33;;
20653;SDS011;21083;50.898;4.902;2022-08-05T10:25:39;9.38;;;2.90;;
20653;SDS011;21083;50.898;4.902;2022-08-05T10:28:07;7.95;;;2.92;;
20653;SDS011;21083;50.898;4.902;2022-08-05T10:30:34;9.45;;;2.88;;
20653;SDS011;21083;50.898;4.902;2022-08-05T10:33:02;7.70;;;2.55;;
20653;SDS011;21083;50.898;4.902;2022-08-05T10:35:29;5.30;;;2.30;;
20653;SDS011;21083;50.898;4.902;2022-08-05T10:37:56;8.52;;;2.88;;
20653;SDS011;21083;50.898;4.902;2022-08-05T10:40:27;8.43;;;2.50;;
20653;SDS011;21083;50.898;4.902;2022-08-05T10:43:01;8.48;;;2.45;;
20653;SDS011;21083;50.898;4.902;2022-08-05T10:45:34;6.95;;;2.20;;
20653;SDS011;21083;50.898;4.902;2022-08-05T10:51:04;10.18;;;2.40;;
20653;SDS011;21083;50.898;4.902;2022-08-05T10:53:34;6.45;;;2.05;;
20653;SDS011;21083;50.898;4.902;2022-08-05T10:56:07;5.50;;;2.22;;
20653;SDS011;21083;50.898;4.902;2022-08-05T10:58:45;5.93;;;1.77;;
20653;SDS011;21083;50.898;4.902;2022-08-05T11:01:14;5.80;;;2.03;;
20653;SDS011;21083;50.898;4.902;2022-08-05T11:04:01;7.82;;;1.90;;
20653;SDS011;21083;50.898;4.902;2022-08-05T11:06:29;6.00;;;1.85;;
20653;SDS011;21083;50.898;4.902;2022-08-05T11:09:09;5.88;;;1.50;;
20653;SDS011;21083;50.898;4.902;2022-08-05T11:11:40;3.45;;;1.13;;
20653;SDS011;21083;50.898;4.902;2022-08-05T11:14:10;4.72;;;1.10;;
20653;SDS011;21083;50.898;4.902;2022-08-05T11:16:38;3.65;;;0.98;;
20653;SDS011;21083;50.898;4.902;2022-08-05T11:19:27;4.30;;;1.20;;
20653;SDS011;21083;50.898;4.902;2022-08-05T11:21:55;4.72;;;1.33;;
20653;SDS011;21083;50.898;4.902;2022-08-05T11:24:42;3.42;;;1.25;;
20653;SDS011;21083;50.898;4.902;2022-08-05T11:27:27;5.30;;;1.35;;
20653;SDS011;21083;50.898;4.902;2022-08-05T11:30:01;6.55;;;1.48;;
20653;SDS011;21083;50.898;4.902;2022-08-05T11:32:28;5.05;;;1.40;;
20653;SDS011;21083;50.898;4.902;2022-08-05T11:34:56;6.38;;;1.60;;
20653;SDS011;21083;50.898;4.902;2022-08-05T11:37:40;8.18;;;1.55;;
20653;SDS011;21083;50.898;4.902;2022-08-05T11:40:28;8.50;;;1.60;;
20653;SDS011;21083;50.898;4.902;2022-08-05T11:43:22;5.72;;;1.38;;
20653;SDS011;21083;50.898;4.902;2022-08-05T11:45:50;5.00;;;1.60;;
20653;SDS011;21083;50.898;4.902;2022-08-05T11:48:18;4.05;;;1.20;;
20653;SDS011;21083;50.898;4.902;2022-08-05T11:50:46;8.55;;;1.25;;
20653;SDS011;21083;50.898;4.902;2022-08-05T11:53:13;4.18;;;1.02;;
20653;SDS011;21083;50.898;4.902;2022-08-05T11:55:51;8.13;;;1.48;;
20653;SDS011;21083;50.898;4.902;2022-08-05T11:58:28;4.55;;;1.30;;
20653;SDS011;21083;50.898;4.902;2022-08-05T12:01:04;5.80;;;1.88;;
20653;SDS011;21083;50.898;4.902;2022-08-05T12:06:19;6.05;;;1.40;;
20653;SDS011;21083;50.898;4.902;2022-08-05T12:08:48;8.90;;;1.70;;
20653;SDS011;21083;50.898;4.902;2022-08-05T12:11:17;5.80;;;1.58;;
20653;SDS011;21083;50.898;4.902;2022-08-05T12:13:52;6.60;;;1.50;;
20653;SDS011;21083;50.898;4.902;2022-08-05T12:16:21;4.88;;;1.38;;
20653;SDS011;21083;50.898;4.902;2022-08-05T12:18:49;4.63;;;1.30;;
20653;SDS011;21083;50.898;4.902;2022-08-05T12:21:17;4.15;;;1.17;;
20653;SDS011;21083;50.898;4.902;2022-08-05T12:23:52;6.78;;;1.17;;
20653;SDS011;21083;50.898;4.902;2022-08-05T12:26:19;6.70;;;1.17;;
20653;SDS011;21083;50.898;4.902;2022-08-05T12:28:46;3.45;;;0.95;;
20653;SDS011;21083;50.898;4.902;2022-08-05T12:31:14;7.05;;;1.60;;
20653;SDS011;21083;50.898;4.902;2022-08-05T12:33:43;4.88;;;1.35;;
20653;SDS011;21083;50.898;4.902;2022-08-05T12:36:10;3.47;;;1.17;;
20653;SDS011;21083;50.898;4.902;2022-08-05T12:38:38;5.30;;;1.02;;
20653;SDS011;21083;50.898;4.902;2022-08-05T12:41:06;5.38;;;1.40;;
20653;SDS011;21083;50.898;4.902;2022-08-05T12:43:46;3.97;;;1.20;;
20653;SDS011;21083;50.898;4.902;2022-08-05T12:46:22;5.40;;;1.38;;
20653;SDS011;21083;50.898;4.902;2022-08-05T12:48:58;8.57;;;1.20;;
20653;SDS011;21083;50.898;4.902;2022-08-05T12:51:27;5.43;;;1.20;;
20653;SDS011;21083;50.898;4.902;2022-08-05T12:53:59;4.30;;;1.20;;
20653;SDS011;21083;50.898;4.902;2022-08-05T12:56:27;3.75;;;1.13;;
20653;SDS011;21083;50.898;4.902;2022-08-05T12:59:14;8.45;;;1.52;;
20653;SDS011;21083;50.898;4.902;2022-08-05T13:01:42;5.38;;;1.15;;
20653;SDS011;21083;50.898;4.902;2022-08-05T13:04:15;6.32;;;1.30;;
20653;SDS011;21083;50.898;4.902;2022-08-05T13:06:42;4.07;;;1.20;;
20653;SDS011;21083;50.898;4.902;2022-08-05T13:09:10;6.32;;;1.48;;
20653;SDS011;21083;50.898;4.902;2022-08-05T13:11:40;6.47;;;1.63;;
20653;SDS011;21083;50.898;4.902;2022-08-05T13:14:09;6.57;;;1.20;;
20653;SDS011;21083;50.898;4.902;2022-08-05T13:16:46;8.68;;;1.70;;
20653;SDS011;21083;50.898;4.902;2022-08-05T13:19:16;4.00;;;1.02;;
20653;SDS011;21083;50.898;4.902;2022-08-05T13:21:49;6.03;;;1.65;;
20653;SDS011;21083;50.898;4.902;2022-08-05T13:24:17;5.50;;;1.35;;
20653;SDS011;21083;50.898;4.902;2022-08-05T13:26:45;3.70;;;1.00;;
20653;SDS011;21083;50.898;4.902;2022-08-05T13:29:13;5.13;;;1.00;;
20653;SDS011;21083;50.898;4.902;2022-08-05T13:31:40;4.00;;;1.30;;
20653;SDS011;21083;50.898;4.902;2022-08-05T13:34:08;5.00;;;1.23;;
20653;SDS011;21083;50.898;4.902;2022-08-05T13:36:36;4.18;;;1.10;;
20653;SDS011;21083;50.898;4.902;2022-08-05T13:39:04;4.82;;;1.10;;
20653;SDS011;21083;50.898;4.902;2022-08-05T13:41:32;6.00;;;1.08;;
20653;SDS011;21083;50.898;4.902;2022-08-05T13:44:00;4.72;;;0.77;;
20653;SDS011;21083;50.898;4.902;2022-08-05T13:46:27;4.15;;;0.85;;
20653;SDS011;21083;50.898;4.902;2022-08-05T13:48:55;8.20;;;1.25;;
20653;SDS011;21083;50.898;4.902;2022-08-05T13:51:26;4.57;;;0.77;;
20653;SDS011;21083;50.898;4.902;2022-08-05T13:53:55;2.95;;;0.70;;
20653;SDS011;21083;50.898;4.902;2022-08-05T13:56:23;3.33;;;1.10;;
20653;SDS011;21083;50.898;4.902;2022-08-05T13:58:50;3.05;;;0.70;;
20653;SDS011;21083;50.898;4.902;2022-08-05T14:01:17;3.38;;;0.60;;
20653;SDS011;21083;50.898;4.902;2022-08-05T14:03:44;7.78;;;0.80;;
20653;SDS011;21083;50.898;4.902;2022-08-05T14:06:32;4.55;;;0.98;;
20653;SDS011;21083;50.898;4.902;2022-08-05T14:08:59;4.32;;;0.70;;
20653;SDS011;21083;50.898;4.902;2022-08-05T14:11:26;2.08;;;0.47;;
20653;SDS011;21083;50.898;4.902;2022-08-05T14:13:56;5.22;;;0.70;;
20653;SDS011;21083;50.898;4.902;2022-08-05T14:16:24;8.02;;;0.90;;
20653;SDS011;21083;50.898;4.902;2022-08-05T14:18:53;4.95;;;1.20;;
20653;SDS011;21083;50.898;4.902;2022-08-05T14:21:20;2.63;;;0.70;;
20653;SDS011;21083;50.898;4.902;2022-08-05T14:23:46;5.43;;;0.82;;
20653;SDS011;21083;50.898;4.902;2022-08-05T14:26:15;4.35;;;0.70;;
20653;SDS011;21083;50.898;4.902;2022-08-05T14:28:42;3.92;;;0.75;;
20653;SDS011;21083;50.898;4.902;2022-08-05T14:31:08;5.82;;;0.60;;
20653;SDS011;21083;50.898;4.902;2022-08-05T14:33:35;5.93;;;0.98;;
20653;SDS011;21083;50.898;4.902;2022-08-05T14:36:02;3.25;;;0.77;;
20653;SDS011;21083;50.898;4.902;2022-08-05T14:38:30;4.63;;;0.70;;
20653;SDS011;21083;50.898;4.902;2022-08-05T14:40:57;6.15;;;0.98;;
20653;SDS011;21083;50.898;4.902;2022-08-05T14:43:25;9.18;;;1.10;;
20653;SDS011;21083;50.898;4.902;2022-08-05T14:45:52;3.08;;;0.63;;
20653;SDS011;21083;50.898;4.902;2022-08-05T14:48:19;2.08;;;0.60;;
20653;SDS011;21083;50.898;4.902;2022-08-05T14:50:46;1.70;;;0.50;;
20653;SDS011;21083;50.898;4.902;2022-08-05T14:53:13;6.03;;;0.80;;
20653;SDS011;21083;50.898;4.902;2022-08-05T14:55:40;1.55;;;0.60;;
20653;SDS011;21083;50.898;4.902;2022-08-05T14:58:07;2.60;;;0.60;;
20653;SDS011;21083;50.898;4.902;2022-08-05T15:00:36;2.67;;;0.50;;